Time;durP1;ratioP1;P1;durP2;ratioP2;P2;SDS_P1;SDS_P2;PMS_P1;PMS_P2;Temp;Humidity;BMP_temperature;BMP_pressure;BME280_temperature;BME280_humidity;BME280_pressure;Samples;Min_cycle;Max_cycle;Signal;HPM_P1;HPM_P2
2023/02/02 00:02:03;;;;;;;18.48;3.63;;;;;;;9.07;100.00;102206.75;5026764;28;20029;-65
2023/02/02 00:04:31;;;;;;;16.15;3.88;;;;;;;9.04;100.00;102206.75;5027287;28;20089;-65
2023/02/02 00:06:57;;;;;;;19.05;3.05;;;;;;;9.02;100.00;102212.88;5027983;28;20126;-65
2023/02/02 00:09:23;;;;;;;23.55;3.78;;;;;;;9.06;100.00;102217.28;5026719;28;20128;-65
2023/02/02 00:11:49;;;;;;;17.50;2.70;;;;;;;9.12;100.00;102208.47;5028650;28;20068;-61
2023/02/02 00:14:16;;;;;;;19.30;3.63;;;;;;;9.01;100.00;102219.03;5028015;28;20064;-64
2023/02/02 00:16:49;;;;;;;20.77;4.00;;;;;;;9.05;100.00;102205.88;5027343;28;20036;-64
2023/02/02 00:19:20;;;;;;;22.90;3.38;;;;;;;8.98;100.00;102215.53;5027805;28;20032;-65
2023/02/02 00:21:46;;;;;;;17.48;3.38;;;;;;;9.06;100.00;102206.75;5026842;28;20033;-64
2023/02/02 00:24:14;;;;;;;23.70;3.65;;;;;;;9.10;100.00;102214.59;5027037;28;20033;-65
2023/02/02 00:26:41;;;;;;;21.65;3.25;;;;;;;9.08;100.00;102229.50;5027192;28;20447;-64
2023/02/02 00:29:08;;;;;;;18.77;3.10;;;;;;;9.00;100.00;102217.28;5027622;28;20025;-64
2023/02/02 00:31:34;;;;;;;19.63;3.53;;;;;;;9.07;100.00;102221.63;5007236;28;20059;-65
2023/02/02 00:33:59;;;;;;;19.73;3.63;;;;;;;9.03;100.00;102228.66;5027174;28;20771;-65
2023/02/02 00:36:25;;;;;;;28.05;3.97;;;;;;;9.07;100.00;102235.66;5026269;28;20172;-65
2023/02/02 00:38:51;;;;;;;22.65;3.88;;;;;;;9.06;100.00;102249.69;5041982;28;20029;-65
2023/02/02 00:41:17;;;;;;;25.40;3.80;;;;;;;9.04;100.00;102238.31;5027925;28;20051;-65
2023/02/02 00:43:43;;;;;;;27.23;3.80;;;;;;;8.96;100.00;102237.47;5008862;28;20108;-65
2023/02/02 00:46:13;;;;;;;24.88;3.53;;;;;;;9.05;100.00;102242.69;5009020;28;20033;-65
2023/02/02 00:48:39;;;;;;;20.83;3.45;;;;;;;9.04;100.00;102238.31;5010232;28;20025;-65
2023/02/02 00:51:04;;;;;;;21.48;3.42;;;;;;;8.99;100.00;102226.94;5026896;28;20033;-65
2023/02/02 00:53:29;;;;;;;24.27;3.67;;;;;;;9.01;100.00;102230.44;5027409;28;20020;-61
2023/02/02 00:55:55;;;;;;;21.73;4.07;;;;;;;9.08;100.00;102232.16;5026705;28;20063;-65
2023/02/02 00:58:20;;;;;;;20.92;3.58;;;;;;;9.06;100.00;102236.53;5027356;28;20580;-64
2023/02/02 01:00:45;;;;;;;20.52;3.40;;;;;;;9.12;100.00;102232.97;5008719;28;20037;-66
2023/02/02 01:03:12;;;;;;;29.80;3.70;;;;;;;9.08;100.00;102229.50;5027098;28;20059;-62
2023/02/02 01:05:37;;;;;;;23.23;7.13;;;;;;;9.07;100.00;102219.88;5027097;28;20032;-65
2023/02/02 01:08:03;;;;;;;24.17;5.40;;;;;;;9.00;100.00;102228.66;5027184;28;20380;-63
2023/02/02 01:10:28;;;;;;;22.50;3.83;;;;;;;9.10;100.00;102221.63;5027174;28;20037;-64
2023/02/02 01:12:53;;;;;;;21.38;3.95;;;;;;;9.00;100.00;102235.69;5026085;28;20033;-65
2023/02/02 01:15:19;;;;;;;28.05;3.50;;;;;;;8.93;100.00;102234.84;5027169;28;20022;-64
2023/02/02 01:17:44;;;;;;;20.92;3.95;;;;;;;8.91;100.00;102231.34;5025657;28;20026;-65
2023/02/02 01:20:16;;;;;;;25.02;3.22;;;;;;;8.92;100.00;102256.75;5027129;28;20038;-63
2023/02/02 01:22:42;;;;;;;19.23;3.38;;;;;;;8.96;100.00;102229.56;5026872;28;20045;-65
2023/02/02 01:25:07;;;;;;;30.17;3.80;;;;;;;8.92;100.00;102243.63;5027226;28;20383;-64
2023/02/02 01:27:32;;;;;;;24.13;3.85;;;;;;;8.95;100.00;102235.72;5008653;28;20030;-64
2023/02/02 01:29:58;;;;;;;31.23;4.15;;;;;;;8.96;100.00;102237.47;5027402;28;20078;-64
2023/02/02 01:32:23;;;;;;;24.55;3.97;;;;;;;9.00;100.00;102220.78;5026932;28;20125;-65
2023/02/02 01:34:49;;;;;;;19.05;3.95;;;;;;;8.93;100.00;102214.69;5026592;28;20041;-65
2023/02/02 01:37:14;;;;;;;27.90;4.25;;;;;;;9.00;100.00;102225.19;5013041;28;20104;-63
2023/02/02 01:39:39;;;;;;;26.33;4.55;;;;;;;8.88;100.00;102224.34;5029832;28;20076;-63
2023/02/02 01:42:13;;;;;;;29.08;4.13;;;;;;;8.90;100.00;102221.69;5029568;28;20508;-65
2023/02/02 01:44:51;;;;;;;26.27;3.47;;;;;;;8.97;100.00;102226.03;5012309;28;20049;-66
2023/02/02 01:47:18;;;;;;;28.90;4.07;;;;;;;8.94;100.00;102221.69;5029372;28;20030;-66
2023/02/02 01:49:44;;;;;;;28.85;5.03;;;;;;;8.91;100.00;102239.25;5012289;28;20030;-62
2023/02/02 01:52:11;;;;;;;19.88;3.45;;;;;;;8.94;100.00;102236.59;5011745;28;20025;-64
2023/02/02 01:54:40;;;;;;;22.67;4.22;;;;;;;8.93;100.00;102234.84;5030029;28;20030;-64
2023/02/02 01:57:21;;;;;;;19.25;3.00;;;;;;;9.01;100.00;102237.44;5029675;28;20030;-65
2023/02/02 01:59:47;;;;;;;18.83;3.95;;;;;;;8.85;100.00;102241.00;5029549;28;20080;-63
2023/02/02 02:02:13;;;;;;;26.13;3.60;;;;;;;8.98;100.00;102233.06;5011747;28;20112;-65
2023/02/02 02:04:39;;;;;;;18.60;3.75;;;;;;;9.08;100.00;102241.78;5011722;28;20071;-63
2023/02/02 02:07:04;;;;;;;32.83;3.83;;;;;;;9.01;100.00;102246.22;5029313;28;20489;-63
2023/02/02 02:09:30;;;;;;;22.20;4.50;;;;;;;9.04;100.00;102235.69;5012004;28;20022;-65
2023/02/02 02:11:55;;;;;;;24.48;3.85;;;;;;;8.99;100.00;102253.22;5029916;28;20119;-64
2023/02/02 02:17:14;;;;;;;22.90;3.60;;;;;;;9.07;100.00;102266.34;5029218;28;20044;-64
2023/02/02 02:26:32;;;;;;;22.50;3.40;;;;;;;9.03;100.00;102252.31;4987318;28;20061;-65
2023/02/02 02:29:10;;;;;;;25.58;3.58;;;;;;;9.02;100.00;102245.31;5005930;28;20038;-63
2023/02/02 02:31:54;;;;;;;24.80;4.43;;;;;;;9.12;100.00;102235.63;5008984;28;20501;-65
2023/02/02 02:34:30;;;;;;;23.77;3.85;;;;;;;9.04;100.00;102250.56;5010021;28;20093;-64
2023/02/02 02:37:04;;;;;;;21.02;3.28;;;;;;;9.03;100.00;102220.75;5038400;28;20084;-66
2023/02/02 02:39:38;;;;;;;22.25;3.17;;;;;;;9.08;100.00;102224.25;5028718;28;20033;-63
2023/02/02 02:42:09;;;;;;;22.25;3.55;;;;;;;9.09;100.00;102233.88;5011353;28;20512;-64
2023/02/02 02:44:35;;;;;;;25.70;4.03;;;;;;;9.00;100.00;102236.56;5029349;28;20037;-64
2023/02/02 02:47:01;;;;;;;21.15;3.65;;;;;;;8.97;100.00;102244.44;5026441;28;20036;-67
2023/02/02 02:49:26;;;;;;;22.70;3.63;;;;;;;9.04;100.00;102240.94;5044481;28;20036;-65
2023/02/02 02:51:53;;;;;;;21.83;3.58;;;;;;;9.08;100.00;102247.03;5028662;28;20043;-63
2023/02/02 02:54:33;;;;;;;17.90;2.92;;;;;;;9.04;100.00;102214.66;5028290;28;20486;-64
2023/02/02 02:57:19;;;;;;;22.65;4.47;;;;;;;9.10;100.00;102209.31;5029203;28;20066;-65
2023/02/02 03:00:06;;;;;;;12.68;3.22;;;;;;;9.19;100.00;102223.31;5027969;28;20479;-64
2023/02/02 03:03:00;;;;;;;27.05;4.03;;;;;;;9.08;100.00;102226.00;5027825;28;20032;-64
2023/02/02 03:06:04;;;;;;;29.05;3.58;;;;;;;9.08;100.00;102245.28;5023984;28;20116;-63
2023/02/02 03:08:42;;;;;;;19.50;4.57;;;;;;;9.06;100.00;102236.53;5028212;28;20031;-64
2023/02/02 03:11:10;;;;;;;17.55;3.33;;;;;;;9.05;100.00;102212.88;5010838;28;20064;-66
2023/02/02 03:13:35;;;;;;;22.20;3.53;;;;;;;8.94;100.00;102226.94;5010741;28;20455;-63
2023/02/02 03:16:01;;;;;;;31.27;4.35;;;;;;;9.06;100.00;102244.41;5026984;28;20021;-65
2023/02/02 03:18:28;;;;;;;17.50;3.15;;;;;;;9.07;100.00;102237.41;5028485;28;20017;-63
2023/02/02 03:20:54;;;;;;;19.20;3.47;;;;;;;9.15;100.00;102242.63;5027971;28;20073;-63
2023/02/02 03:23:19;;;;;;;14.63;2.83;;;;;;;9.02;100.00;102234.81;5028639;28;20679;-66
2023/02/02 03:25:45;;;;;;;19.02;3.38;;;;;;;9.08;100.00;102247.94;5028268;28;20030;-66
2023/02/02 03:28:10;;;;;;;26.83;3.90;;;;;;;9.15;100.00;102246.13;5028994;28;20112;-65
2023/02/02 03:30:37;;;;;;;13.95;2.97;;;;;;;9.08;100.00;102234.78;5009490;28;20049;-64
2023/02/02 03:33:03;;;;;;;28.50;4.38;;;;;;;9.07;100.00;102266.34;5028525;28;20109;-65
2023/02/02 03:35:29;;;;;;;22.73;3.15;;;;;;;9.07;100.00;102259.34;5010470;28;20087;-65
2023/02/02 03:37:55;;;;;;;26.85;3.65;;;;;;;9.03;100.00;102272.50;5028602;28;20049;-65
2023/02/02 03:40:20;;;;;;;24.83;3.35;;;;;;;9.06;100.00;102256.72;5027968;28;20388;-64
2023/02/02 03:42:46;;;;;;;20.35;2.90;;;;;;;9.08;100.00;102260.19;5028211;28;20029;-65
2023/02/02 03:45:11;;;;;;;20.90;3.03;;;;;;;9.09;100.00;102254.91;5027371;28;20340;-66
2023/02/02 03:47:36;;;;;;;22.48;3.67;;;;;;;8.99;100.00;102263.72;5028036;28;20056;-65
2023/02/02 03:50:03;;;;;;;25.73;4.78;;;;;;;9.04;100.00;102263.72;5027586;28;20026;-64
2023/02/02 03:52:29;;;;;;;15.70;2.72;;;;;;;9.04;100.00;102256.72;5010121;28;20022;-64
2023/02/02 03:54:54;;;;;;;23.38;3.80;;;;;;;9.08;100.00;102263.69;5027782;28;20101;-65
2023/02/02 03:57:19;;;;;;;16.95;3.20;;;;;;;9.06;100.00;102270.72;5028382;28;20052;-63
2023/02/02 03:59:45;;;;;;;20.55;3.72;;;;;;;9.08;100.00;102300.50;5027285;28;20033;-65
2023/02/02 04:02:10;;;;;;;17.73;3.13;;;;;;;9.08;100.00;102279.47;5028297;28;20811;-65
2023/02/02 04:04:35;;;;;;;30.45;3.92;;;;;;;9.04;100.00;102272.50;5027572;28;20143;-65
2023/02/02 04:07:01;;;;;;;26.17;3.60;;;;;;;9.06;100.00;102275.97;5027734;28;20350;-64
2023/02/02 04:09:26;;;;;;;21.58;2.83;;;;;;;9.10;100.00;102263.69;5026860;28;20033;-64
2023/02/02 04:11:52;;;;;;;25.92;4.03;;;;;;;9.16;100.00;102260.16;5027975;28;20076;-65
2023/02/02 04:14:18;;;;;;;20.52;3.08;;;;;;;9.12;100.00;102264.53;5026665;28;20033;-65
2023/02/02 04:16:43;;;;;;;25.92;3.67;;;;;;;9.15;100.00;102253.16;5026677;28;20033;-66
2023/02/02 04:19:09;;;;;;;20.45;3.65;;;;;;;9.17;100.00;102254.00;5027137;28;20123;-63
2023/02/02 04:21:34;;;;;;;16.45;3.88;;;;;;;9.14;100.00;102254.91;5027223;28;20091;-63
2023/02/02 04:23:59;;;;;;;21.45;4.00;;;;;;;9.10;100.00;102256.66;5027119;28;20035;-64
2023/02/02 04:26:25;;;;;;;27.85;3.55;;;;;;;9.10;100.00;102266.31;5027276;28;20036;-66
2023/02/02 04:28:52;;;;;;;18.98;2.92;;;;;;;9.09;100.00;102256.66;5027303;28;20104;-65
2023/02/02 04:31:17;;;;;;;18.75;3.10;;;;;;;9.11;100.00;102257.53;5027669;28;20116;-64
2023/02/02 04:33:42;;;;;;;20.17;3.30;;;;;;;9.20;100.00;102275.03;5025897;28;20452;-64
2023/02/02 04:36:09;;;;;;;18.33;3.33;;;;;;;9.09;100.00;102265.44;5027231;28;20035;-65
2023/02/02 04:38:34;;;;;;;17.38;3.20;;;;;;;9.14;100.00;102264.53;5008872;28;20464;-65
2023/02/02 04:41:06;;;;;;;21.30;3.10;;;;;;;9.14;100.00;102282.94;5027752;28;20025;-64
2023/02/02 04:43:36;;;;;;;22.05;4.10;;;;;;;9.12;100.00;102275.06;5026730;28;20029;-63
2023/02/02 04:46:01;;;;;;;24.77;3.28;;;;;;;9.16;100.00;102266.31;5026773;28;20028;-64
2023/02/02 04:48:27;;;;;;;17.45;2.97;;;;;;;9.23;100.00;102275.00;5026207;28;20033;-64
2023/02/02 04:51:05;;;;;;;25.70;3.92;;;;;;;9.07;100.00;102293.50;5027627;28;20030;-65
2023/02/02 04:53:31;;;;;;;16.30;2.72;;;;;;;9.15;100.00;102268.94;5026697;28;20025;-64
2023/02/02 04:55:56;;;;;;;13.15;2.75;;;;;;;9.14;100.00;102278.56;5027585;28;20040;-64
2023/02/02 04:58:22;;;;;;;21.20;3.08;;;;;;;9.11;100.00;102286.47;5026823;28;20522;-64
2023/02/02 05:00:47;;;;;;;21.55;3.30;;;;;;;9.10;100.00;102282.94;5027370;28;20490;-63
2023/02/02 05:03:12;;;;;;;16.85;3.38;;;;;;;9.13;100.00;102275.94;5026258;28;20391;-64
2023/02/02 05:05:38;;;;;;;17.95;3.00;;;;;;;9.08;100.00;102279.47;5027414;28;20025;-65
2023/02/02 05:08:03;;;;;;;16.90;3.28;;;;;;;9.09;100.00;102280.34;5026924;28;20018;-65
2023/02/02 05:10:29;;;;;;;20.83;3.03;;;;;;;9.17;100.00;102278.56;5011983;28;20034;-64
2023/02/02 05:12:54;;;;;;;12.93;2.30;;;;;;;9.19;100.00;102282.06;5030819;28;20032;-64
2023/02/02 05:15:20;;;;;;;18.92;2.80;;;;;;;9.13;100.00;102282.09;5031158;28;20061;-63
2023/02/02 05:17:49;;;;;;;18.10;2.92;;;;;;;9.13;100.00;102283.84;5027864;28;20040;-65
2023/02/02 05:20:15;;;;;;;20.08;2.70;;;;;;;9.15;100.00;102284.72;5030756;28;20033;-64
2023/02/02 05:22:41;;;;;;;23.73;3.13;;;;;;;9.07;100.00;102277.75;5030405;28;20030;-63
2023/02/02 05:25:07;;;;;;;16.73;2.80;;;;;;;9.09;100.00;102270.69;5029659;28;20021;-64
2023/02/02 05:27:33;;;;;;;19.65;2.72;;;;;;;9.14;100.00;102277.69;5029822;28;20026;-63
2023/02/02 05:29:58;;;;;;;20.60;3.22;;;;;;;9.06;100.00;102275.13;5029307;28;20075;-64
2023/02/02 05:32:23;;;;;;;17.45;3.03;;;;;;;9.09;100.00;102289.09;5029333;28;20030;-64
2023/02/02 05:34:49;;;;;;;21.08;2.67;;;;;;;9.05;100.00;102292.63;5030573;28;20365;-64
2023/02/02 05:37:14;;;;;;;19.48;2.92;;;;;;;8.99;100.00;102292.66;5030827;28;20029;-65
2023/02/02 05:39:40;;;;;;;16.45;2.97;;;;;;;9.09;100.00;102281.22;5030344;28;20021;-63
2023/02/02 05:42:05;;;;;;;15.35;2.88;;;;;;;9.13;100.00;102292.59;5029756;28;20141;-64
2023/02/02 05:44:30;;;;;;;17.20;2.95;;;;;;;9.13;100.00;102291.72;5030068;28;20425;-63
2023/02/02 05:46:56;;;;;;;18.30;2.80;;;;;;;9.08;100.00;102290.00;5029389;28;20412;-66
2023/02/02 05:49:21;;;;;;;18.02;3.60;;;;;;;9.24;100.00;102284.66;5030134;28;20101;-62
2023/02/02 05:51:48;;;;;;;19.20;3.50;;;;;;;8.98;100.00;102283.03;5030914;28;20029;-64
2023/02/02 05:54:18;;;;;;;16.75;2.75;;;;;;;9.04;100.00;102288.28;5012556;28;20375;-63
2023/02/02 05:56:44;;;;;;;18.20;3.25;;;;;;;9.19;100.00;102275.91;5029584;28;20511;-64
2023/02/02 05:59:09;;;;;;;18.30;2.60;;;;;;;9.16;100.00;102283.81;5012752;28;20033;-65
2023/02/02 06:01:34;;;;;;;22.23;2.83;;;;;;;9.16;100.00;102286.44;5028694;28;20032;-65
2023/02/02 06:04:00;;;;;;;19.63;2.85;;;;;;;9.14;100.00;102290.84;5029812;28;20122;-65
2023/02/02 06:06:25;;;;;;;15.75;2.88;;;;;;;9.08;100.00;102289.09;5030240;28;20021;-64
2023/02/02 06:08:50;;;;;;;13.63;3.08;;;;;;;9.09;100.00;102296.09;5011301;28;20022;-65
2023/02/02 06:11:17;;;;;;;12.35;3.03;;;;;;;9.14;100.00;102299.59;5010700;28;20030;-67
2023/02/02 06:13:43;;;;;;;12.80;2.55;;;;;;;9.14;100.00;102311.88;5010354;28;20022;-66
2023/02/02 06:16:08;;;;;;;22.05;4.28;;;;;;;9.18;100.00;102318.88;5009488;28;20030;-65
2023/02/02 06:18:35;;;;;;;17.42;3.60;;;;;;;9.17;100.00;102282.94;5009624;28;20357;-66
2023/02/02 06:21:01;;;;;;;18.13;3.47;;;;;;;9.06;100.00;102296.16;5009179;28;20109;-66
2023/02/02 06:23:26;;;;;;;16.80;2.67;;;;;;;9.05;100.00;102315.41;5009297;28;20111;-66
2023/02/02 06:25:52;;;;;;;20.55;3.63;;;;;;;9.06;100.00;102297.00;5010015;28;20066;-64
2023/02/02 06:28:17;;;;;;;17.45;3.45;;;;;;;9.18;100.00;102311.84;5025709;28;20037;-63
2023/02/02 06:30:43;;;;;;;18.15;2.85;;;;;;;9.15;100.00;102311.00;5027723;28;20045;-66
2023/02/02 06:33:08;;;;;;;19.77;3.13;;;;;;;9.19;100.00;102318.00;5010983;28;20131;-67
2023/02/02 06:35:34;;;;;;;23.23;3.97;;;;;;;9.11;100.00;102318.03;5029174;28;20021;-63
2023/02/02 06:37:59;;;;;;;23.35;3.70;;;;;;;9.14;100.00;102330.28;5026211;28;20108;-66
2023/02/02 06:40:26;;;;;;;18.48;3.20;;;;;;;9.14;100.00;102340.78;5026812;28;20160;-65
2023/02/02 06:43:00;;;;;;;22.27;2.92;;;;;;;9.06;100.00;102357.47;5016691;28;20029;-64
2023/02/02 06:45:26;;;;;;;18.42;3.25;;;;;;;9.15;100.00;102335.53;5025659;28;20087;-67
2023/02/02 06:47:52;;;;;;;16.88;3.88;;;;;;;9.02;100.00;102347.88;5028178;28;20021;-65
2023/02/02 06:50:17;;;;;;;31.60;3.78;;;;;;;8.77;100.00;102345.31;5027262;28;20418;-65
2023/02/02 06:52:48;;;;;;;20.40;4.35;;;;;;;8.62;100.00;102335.69;5026155;28;20033;-65
2023/02/02 06:55:13;;;;;;;18.77;3.08;;;;;;;8.84;100.00;102344.41;5027104;28;20404;-65
2023/02/02 06:57:38;;;;;;;22.40;4.20;;;;;;;8.82;100.00;102327.75;5027440;28;20017;-64
2023/02/02 07:00:04;;;;;;;19.92;3.33;;;;;;;8.89;100.00;102333.00;5026434;28;20326;-64
2023/02/02 07:02:30;;;;;;;27.88;3.70;;;;;;;8.79;100.00;102334.78;5026958;28;20376;-65
2023/02/02 07:04:55;;;;;;;24.98;3.55;;;;;;;8.80;100.00;102321.66;5026509;28;20032;-65
2023/02/02 07:07:21;;;;;;;17.30;3.65;;;;;;;8.87;100.00;102358.41;5027247;28;20101;-64
2023/02/02 07:09:46;;;;;;;19.08;3.17;;;;;;;8.81;100.00;102326.00;5026741;28;20396;-65
2023/02/02 07:12:11;;;;;;;31.13;4.35;;;;;;;8.92;100.00;102341.75;5009013;28;20125;-65
2023/02/02 07:14:37;;;;;;;18.48;3.33;;;;;;;8.87;100.00;102337.38;5025262;28;20025;-65
2023/02/02 07:17:02;;;;;;;31.48;4.50;;;;;;;8.92;100.00;102351.41;5027497;28;20017;-64
2023/02/02 07:19:27;;;;;;;22.10;3.22;;;;;;;8.89;100.00;102354.91;5027124;28;20025;-66
2023/02/02 07:21:53;;;;;;;19.42;3.05;;;;;;;8.92;100.00;102360.16;5027700;28;20057;-65
2023/02/02 07:24:18;;;;;;;21.13;4.07;;;;;;;9.02;100.00;102361.00;5027074;28;20093;-64
2023/02/02 07:26:43;;;;;;;26.02;3.70;;;;;;;8.90;100.00;102350.50;5026700;28;20514;-65
2023/02/02 07:29:12;;;;;;;17.58;3.50;;;;;;;8.94;100.00;102360.16;5026055;28;20457;-70
2023/02/02 07:31:38;;;;;;;12.55;2.85;;;;;;;8.98;100.00;102381.16;5023985;28;20369;-67
2023/02/02 07:34:03;;;;;;;23.05;3.90;;;;;;;8.84;100.00;102373.31;5022919;28;20035;-70
2023/02/02 07:36:29;;;;;;;16.92;3.08;;;;;;;8.80;100.00;102368.06;5025925;28;20025;-70
2023/02/02 07:38:56;;;;;;;20.58;3.90;;;;;;;8.88;100.00;102373.31;5024631;28;20022;-65
2023/02/02 07:41:21;;;;;;;17.40;3.17;;;;;;;8.85;100.00;102385.56;5007605;28;20248;-62
2023/02/02 07:43:47;;;;;;;22.02;3.65;;;;;;;8.78;100.00;102375.06;5025866;28;20135;-64
2023/02/02 07:46:13;;;;;;;16.45;3.38;;;;;;;8.92;100.00;102386.47;5025470;28;20491;-66
2023/02/02 07:48:39;;;;;;;16.80;3.83;;;;;;;8.86;100.00;102410.13;5025628;28;20056;-63
2023/02/02 07:51:06;;;;;;;26.15;3.97;;;;;;;8.89;100.00;102417.13;5026018;28;20017;-64
2023/02/02 07:53:32;;;;;;;25.38;3.53;;;;;;;8.90;100.00;102406.59;5025217;28;20064;-62
2023/02/02 07:56:15;;;;;;;21.83;3.13;;;;;;;8.90;100.00;102392.56;5025912;28;20071;-60
2023/02/02 07:58:41;;;;;;;21.83;2.80;;;;;;;8.82;100.00;102400.50;4990326;28;20108;-63
2023/02/02 08:01:09;;;;;;;36.30;3.75;;;;;;;8.83;100.00;102407.50;5025510;28;20136;-68
2023/02/02 08:03:36;;;;;;;22.67;2.97;;;;;;;8.84;100.00;102403.97;5025339;28;20107;-61
2023/02/02 08:06:08;;;;;;;19.13;2.90;;;;;;;8.88;100.00;102423.25;5026070;28;20017;-65
2023/02/02 08:08:33;;;;;;;18.92;3.17;;;;;;;8.88;100.00;102402.25;5025995;28;20021;-64
2023/02/02 08:10:58;;;;;;;18.67;3.17;;;;;;;8.93;100.00;102406.59;5026826;28;20025;-62
2023/02/02 08:13:24;;;;;;;21.17;3.38;;;;;;;8.90;100.00;102409.22;5025551;28;20025;-67
2023/02/02 08:15:49;;;;;;;14.07;2.78;;;;;;;8.92;100.00;102396.97;5024834;28;20029;-66
2023/02/02 08:18:15;;;;;;;16.25;4.07;;;;;;;8.98;100.00;102404.81;5025646;28;20488;-64
2023/02/02 08:20:40;;;;;;;19.08;2.95;;;;;;;8.96;100.00;102405.72;5024869;28;20017;-66
2023/02/02 08:23:12;;;;;;;22.35;2.72;;;;;;;8.95;100.00;102403.97;5007198;28;20030;-66
2023/02/02 08:25:37;;;;;;;21.35;3.55;;;;;;;8.91;100.00;102412.75;5006352;28;20526;-66
2023/02/02 08:28:04;;;;;;;23.88;3.28;;;;;;;9.03;100.00;102422.38;5007431;28;20029;-66
2023/02/02 08:30:30;;;;;;;16.58;3.63;;;;;;;9.08;100.00;102418.84;5023219;28;20050;-65
2023/02/02 08:32:56;;;;;;;18.20;3.03;;;;;;;9.03;100.00;102425.00;5024914;28;20037;-63
2023/02/02 08:35:21;;;;;;;29.75;4.35;;;;;;;9.04;100.00;102425.00;5025261;28;20370;-62
2023/02/02 08:37:49;;;;;;;21.23;2.60;;;;;;;9.10;100.00;102413.59;5025334;28;20029;-66
2023/02/02 08:40:15;;;;;;;27.90;3.85;;;;;;;9.13;100.00;102424.09;5024978;28;20036;-65
2023/02/02 08:42:40;;;;;;;20.80;3.83;;;;;;;9.17;100.00;102431.09;5024796;28;20100;-64
2023/02/02 08:45:06;;;;;;;15.20;2.83;;;;;;;9.28;100.00;102446.84;5026647;28;20553;-67
2023/02/02 08:47:32;;;;;;;11.85;2.60;;;;;;;9.23;100.00;102435.47;5029314;28;20104;-66
2023/02/02 08:49:57;;;;;;;20.60;3.13;;;;;;;9.33;100.00;102447.69;5029948;28;20096;-64
2023/02/02 08:52:22;;;;;;;21.45;3.13;;;;;;;9.29;100.00;102450.34;5029578;28;20057;-66
2023/02/02 08:54:48;;;;;;;22.05;2.60;;;;;;;9.19;100.00;102454.75;5029574;28;20037;-66
2023/02/02 08:57:13;;;;;;;16.58;2.67;;;;;;;9.21;100.00;102456.50;5029161;28;20039;-65
2023/02/02 08:59:38;;;;;;;17.52;2.78;;;;;;;9.31;100.00;102457.38;5028321;28;20108;-63
2023/02/02 09:02:04;;;;;;;28.67;3.28;;;;;;;9.37;100.00;102447.69;5029435;28;20026;-64
2023/02/02 09:04:29;;;;;;;21.45;2.58;;;;;;;9.36;100.00;102452.06;5029631;28;20020;-66
2023/02/02 09:06:54;;;;;;;18.48;3.00;;;;;;;9.37;100.00;102455.59;5029276;28;20009;-67
2023/02/02 09:09:20;;;;;;;21.85;3.15;;;;;;;9.29;100.00;102461.75;5031402;28;20403;-64
2023/02/02 09:11:45;;;;;;;21.48;3.28;;;;;;;9.35;100.00;102455.59;5030957;28;20060;-66
2023/02/02 09:14:12;;;;;;;15.18;2.53;;;;;;;9.28;100.00;102456.50;5011527;28;20033;-65
2023/02/02 09:16:37;;;;;;;16.48;2.75;;;;;;;9.28;100.00;102469.66;5045939;28;20057;-64
2023/02/02 09:19:06;;;;;;;15.50;3.35;;;;;;;9.29;100.00;102456.50;5021273;28;20053;-65
2023/02/02 09:21:35;;;;;;;26.97;4.57;;;;;;;9.47;100.00;102462.56;5010433;28;20562;-63
2023/02/02 09:24:08;;;;;;;13.18;2.45;;;;;;;9.24;100.00;102481.91;5010643;28;20022;-65
2023/02/02 09:26:33;;;;;;;16.05;2.85;;;;;;;9.19;100.00;102484.59;5010728;28;20018;-65
2023/02/02 09:29:01;;;;;;;19.58;3.85;;;;;;;9.23;100.00;102474.91;5016978;28;20079;-65
2023/02/02 09:31:27;;;;;;;23.58;3.22;;;;;;;9.16;100.00;102481.06;5029365;28;20033;-66
2023/02/02 09:33:53;;;;;;;14.77;2.35;;;;;;;9.28;100.00;102488.94;5029074;28;20052;-66
2023/02/02 09:36:22;;;;;;;24.65;3.17;;;;;;;9.44;100.00;102481.00;5029493;28;20033;-67
2023/02/02 09:38:49;;;;;;;28.77;3.50;;;;;;;9.42;100.00;102480.16;5027511;28;20036;-68
2023/02/02 09:41:26;;;;;;;18.95;3.10;;;;;;;9.40;100.00;102495.06;5029056;28;20071;-71
2023/02/02 09:44:16;;;;;;;24.23;3.70;;;;;;;9.52;100.00;102489.78;5027421;28;20021;-64
2023/02/02 09:47:03;;;;;;;21.63;2.22;;;;;;;9.70;100.00;102488.81;5027473;28;20021;-67
2023/02/02 09:49:37;;;;;;;16.17;2.55;;;;;;;9.98;100.00;102469.38;5026224;28;20083;-70
2023/02/02 09:52:09;;;;;;;21.48;3.58;;;;;;;10.07;100.00;102471.97;5011710;28;20059;-70
2023/02/02 09:54:47;;;;;;;14.20;2.45;;;;;;;10.20;100.00;102461.34;5029135;28;20022;-65
2023/02/02 09:57:18;;;;;;;11.63;2.10;;;;;;;10.13;100.00;102478.97;5023844;28;20037;-67
2023/02/02 09:59:45;;;;;;;14.27;2.88;;;;;;;10.21;100.00;102457.84;5010743;28;20283;-72
2023/02/02 10:02:32;;;;;;;17.40;3.05;;;;;;;10.28;100.00;102487.66;5012172;28;20064;-69
2023/02/02 10:05:01;;;;;;;14.65;2.40;;;;;;;10.32;100.00;102470.94;5012182;28;20057;-72
2023/02/02 10:07:30;;;;;;;;;;;;;;;10.30;100.00;102475.38;5009319;28;20404;-70
2023/02/02 10:10:02;;;;;;;14.02;2.50;;;;;;;10.30;100.00;102480.63;5040343;28;20261;-69
2023/02/02 10:12:51;;;;;;;18.02;2.42;;;;;;;10.38;100.00;102491.97;5011559;28;20038;-69
2023/02/02 10:15:32;;;;;;;14.30;2.58;;;;;;;10.32;100.00;102500.81;5027129;28;20048;-65
2023/02/02 10:18:03;;;;;;;15.32;2.45;;;;;;;10.18;100.00;102489.50;5029105;28;20039;-70
2023/02/02 10:20:50;;;;;;;14.80;2.40;;;;;;;10.18;100.00;102500.88;5027160;28;20037;-71
2023/02/02 10:23:37;;;;;;;10.55;2.70;;;;;;;10.23;100.00;102504.38;5022868;28;20026;-69
2023/02/02 10:26:19;;;;;;;14.05;2.45;;;;;;;10.30;100.00;102507.84;5009120;28;20022;-70
2023/02/02 10:28:47;;;;;;;12.75;2.30;;;;;;;10.26;100.00;102492.94;5008658;28;20072;-66
2023/02/02 10:31:37;;;;;;;13.65;2.50;;;;;;;10.36;100.00;102505.16;5013183;28;20077;-71
2023/02/02 10:34:20;;;;;;;16.95;2.58;;;;;;;10.43;100.00;102516.56;5014082;28;20105;-72
2023/02/02 10:37:21;;;;;;;14.77;2.13;;;;;;;10.35;100.00;102524.50;5028730;28;20037;-67
2023/02/02 10:40:02;;;;;;;12.82;2.38;;;;;;;10.47;100.00;102517.44;5025177;28;20037;-71
2023/02/02 10:42:33;;;;;;;13.98;2.08;;;;;;;10.50;100.00;102522.69;5027840;28;20029;-67
2023/02/02 10:45:01;;;;;;;13.48;2.83;;;;;;;10.68;100.00;102523.44;5026748;28;20085;-71
2023/02/02 10:47:32;;;;;;;22.63;3.78;;;;;;;10.62;100.00;102519.09;5010419;28;20108;-71
2023/02/02 10:50:09;;;;;;;13.43;2.70;;;;;;;10.73;100.00;102521.66;5024851;28;20490;-70
2023/02/02 10:52:35;;;;;;;16.20;2.90;;;;;;;10.68;100.00;102520.81;5010017;28;20017;-71
2023/02/02 10:55:07;;;;;;;18.60;2.65;;;;;;;10.55;100.00;102518.28;5009944;28;20029;-71
2023/02/02 10:57:42;;;;;;;16.10;2.45;;;;;;;10.56;100.00;102509.47;5027792;28;20423;-69
2023/02/02 11:00:31;;;;;;;16.05;2.72;;;;;;;10.55;100.00;102507.72;5027153;28;20104;-66
2023/02/02 11:02:57;;;;;;;16.25;3.28;;;;;;;10.67;100.00;102519.06;5009868;28;20021;-67
2023/02/02 11:08:31;;;;;;;11.77;1.92;;;;;;;10.71;100.00;102516.41;5025503;28;20534;-70
2023/02/02 11:10:57;;;;;;;14.27;2.33;;;;;;;10.73;100.00;102514.63;5025491;28;20025;-73
2023/02/02 11:13:30;;;;;;;23.85;2.70;;;;;;;10.71;100.00;102521.66;5003979;28;20502;-64
2023/02/02 11:16:19;;;;;;;10.68;2.45;;;;;;;10.77;100.00;102520.75;5010025;28;20112;-69
2023/02/02 11:18:44;;;;;;;13.18;2.00;;;;;;;10.67;100.00;102532.25;5027050;28;20507;-70
2023/02/02 11:21:20;;;;;;;10.80;2.10;;;;;;;10.65;100.00;102516.44;5028567;28;20041;-63
2023/02/02 11:23:53;;;;;;;17.23;3.08;;;;;;;10.68;100.00;102528.72;5027207;28;20368;-71
2023/02/02 11:26:18;;;;;;;16.98;2.63;;;;;;;10.50;100.00;102520.06;5028686;28;20025;-70
2023/02/02 11:28:47;;;;;;;13.32;2.25;;;;;;;10.46;100.00;102521.84;5026717;28;20036;-67
2023/02/02 11:31:12;;;;;;;15.73;2.55;;;;;;;10.46;100.00;102526.22;5027669;28;20132;-64
2023/02/02 11:33:37;;;;;;;13.60;2.42;;;;;;;10.48;100.00;102521.84;5025745;28;20124;-67
2023/02/02 11:36:06;;;;;;;16.10;2.30;;;;;;;10.40;100.00;102521.84;5027064;28;20098;-70